メインページ
METAR-TAF:

METAR-TAF

空港 :

マルティニーク・エメ・セゼール国際空港

フォール=ド=フランス, マルティニーク

緯度: 14-36N, 経度: 061-00W, 海抜: 5m

現時点の気象観測

当レポートは23分前の14:00(UTC)に作成
の風 17kt
気温 30°C
湿度 66%
気圧 1017 hPa
視程10km以上
高度2500ftの雲はほとんどない
高度3200ftの雲は散在している
高度5600ftの曇り

METAR: TFFF 201400Z AUTO 10017KT 9999 FEW025 SCT032 OVC056 30/23 Q1017 TEMPO SCT018TCU

時間: 10:23 (14:23 UTC)

予報

当レポートは4時間23分前の10:00(UTC)に作成
予報は20日の 12時(UTC)から 21日の 12時(UTC)まで有効
の風 15kt
視程10km以上
高度2300ftの雲は散在している
高度4000ftの雲は散在している
確率 30% :
20日の 12時(UTC)から 20日の 15時(UTC)まで一時的に
高度1800ftの雲は散在している, 塔状積雲.

TAF: TFFF 201000Z 2012/2112 08015KT 9999 SCT023 SCT040 PROB30 TEMPO 2012/2015 SCT018TCU

4,000以上の空港の気象観測と天気予報(METAR報とTAF報)

利用可能な観測所は地図上に黄色い丸と赤い丸で示す。

丸の上にカーソルを重ねると観測所名を参照できる。

次にクリックすると気象観測と天気予報を参照できる。

マップの切り替え:黒色「×」印の緑ボタンをクリックして拡大、「-」印の緑ボタンをクリックして縮小、緑色の三角印をクリックして隣りの地図に切り替え


METAR-TAF: